sensor_id;sensor_type;location;lat;lon;timestamp;pressure;altitude;pressure_sealevel;temperature;humidity
16016;BME280;8112;53.592;10.184;2023-12-14T00:01:04;100649.22;;;3.73;100.00
16016;BME280;8112;53.592;10.184;2023-12-14T00:06:12;100654.44;;;3.73;100.00
16016;BME280;8112;53.592;10.184;2023-12-14T00:11:14;100658.94;;;3.69;100.00
16016;BME280;8112;53.592;10.184;2023-12-14T00:16:16;100660.91;;;3.61;100.00
16016;BME280;8112;53.592;10.184;2023-12-14T00:21:19;100679.72;;;3.70;100.00
16016;BME280;8112;53.592;10.184;2023-12-14T00:26:20;100680.84;;;3.62;100.00
16016;BME280;8112;53.592;10.184;2023-12-14T00:31:22;100687.53;;;3.70;100.00
16016;BME280;8112;53.592;10.184;2023-12-14T00:36:25;100684.13;;;3.68;100.00
16016;BME280;8112;53.592;10.184;2023-12-14T00:41:27;100692.00;;;3.67;100.00
16016;BME280;8112;53.592;10.184;2023-12-14T00:46:28;100704.97;;;3.68;100.00
16016;BME280;8112;53.592;10.184;2023-12-14T00:51:31;100725.63;;;3.75;100.00
16016;BME280;8112;53.592;10.184;2023-12-14T00:56:33;100742.03;;;3.78;100.00
16016;BME280;8112;53.592;10.184;2023-12-14T01:01:35;100732.63;;;3.73;100.00
16016;BME280;8112;53.592;10.184;2023-12-14T01:06:38;100739.56;;;3.74;100.00
16016;BME280;8112;53.592;10.184;2023-12-14T01:11:39;100740.13;;;3.83;100.00
16016;BME280;8112;53.592;10.184;2023-12-14T01:16:41;100740.09;;;3.85;100.00
16016;BME280;8112;53.592;10.184;2023-12-14T01:21:44;100748.63;;;3.90;100.00
16016;BME280;8112;53.592;10.184;2023-12-14T01:26:46;100762.44;;;3.92;100.00
16016;BME280;8112;53.592;10.184;2023-12-14T01:31:48;100772.75;;;3.97;100.00
16016;BME280;8112;53.592;10.184;2023-12-14T01:36:51;100781.56;;;3.93;100.00
16016;BME280;8112;53.592;10.184;2023-12-14T01:41:53;100766.88;;;3.90;100.00
16016;BME280;8112;53.592;10.184;2023-12-14T01:46:54;100785.09;;;3.92;100.00
16016;BME280;8112;53.592;10.184;2023-12-14T01:51:57;100790.97;;;3.98;100.00
16016;BME280;8112;53.592;10.184;2023-12-14T01:56:59;100800.66;;;3.93;100.00
16016;BME280;8112;53.592;10.184;2023-12-14T02:02:01;100805.00;;;3.94;100.00
16016;BME280;8112;53.592;10.184;2023-12-14T02:07:04;100803.28;;;3.93;100.00
16016;BME280;8112;53.592;10.184;2023-12-14T02:12:06;100806.50;;;4.02;100.00
16016;BME280;8112;53.592;10.184;2023-12-14T02:17:08;100809.16;;;4.00;100.00
16016;BME280;8112;53.592;10.184;2023-12-14T02:22:11;100814.38;;;4.00;100.00
16016;BME280;8112;53.592;10.184;2023-12-14T02:27:14;100811.59;;;4.06;100.00
16016;BME280;8112;53.592;10.184;2023-12-14T02:32:15;100823.19;;;3.96;100.00
16016;BME280;8112;53.592;10.184;2023-12-14T02:37:17;100828.31;;;3.99;100.00
16016;BME280;8112;53.592;10.184;2023-12-14T02:42:20;100830.91;;;3.99;100.00
16016;BME280;8112;53.592;10.184;2023-12-14T02:47:22;100830.13;;;3.97;100.00
16016;BME280;8112;53.592;10.184;2023-12-14T02:52:25;100840.44;;;4.00;100.00
16016;BME280;8112;53.592;10.184;2023-12-14T02:57:28;100844.63;;;4.06;100.00
16016;BME280;8112;53.592;10.184;2023-12-14T03:02:29;100856.03;;;4.03;100.00
16016;BME280;8112;53.592;10.184;2023-12-14T03:07:31;100853.47;;;4.00;100.00
16016;BME280;8112;53.592;10.184;2023-12-14T03:12:34;100862.13;;;4.02;100.00
16016;BME280;8112;53.592;10.184;2023-12-14T03:17:36;100874.53;;;3.94;100.00
16016;BME280;8112;53.592;10.184;2023-12-14T03:22:37;100882.38;;;3.94;100.00
16016;BME280;8112;53.592;10.184;2023-12-14T03:27:41;100884.88;;;3.97;100.00
16016;BME280;8112;53.592;10.184;2023-12-14T03:32:43;100899.81;;;3.92;100.00
16016;BME280;8112;53.592;10.184;2023-12-14T03:37:44;100900.66;;;3.92;100.00
16016;BME280;8112;53.592;10.184;2023-12-14T03:42:47;100898.09;;;3.91;100.00
16016;BME280;8112;53.592;10.184;2023-12-14T03:47:49;100911.13;;;3.91;100.00
16016;BME280;8112;53.592;10.184;2023-12-14T03:52:51;100908.53;;;3.91;100.00
16016;BME280;8112;53.592;10.184;2023-12-14T03:57:54;100907.81;;;3.85;100.00
16016;BME280;8112;53.592;10.184;2023-12-14T04:02:55;100922.47;;;3.90;100.00
16016;BME280;8112;53.592;10.184;2023-12-14T04:07:57;100932.88;;;3.90;100.00
16016;BME280;8112;53.592;10.184;2023-12-14T04:13:00;100931.91;;;3.94;100.00
16016;BME280;8112;53.592;10.184;2023-12-14T04:18:02;100928.41;;;3.95;100.00
16016;BME280;8112;53.592;10.184;2023-12-14T04:23:04;100934.41;;;3.97;100.00
16016;BME280;8112;53.592;10.184;2023-12-14T04:28:07;100940.63;;;3.93;100.00
16016;BME280;8112;53.592;10.184;2023-12-14T04:33:08;100949.13;;;3.99;100.00
16016;BME280;8112;53.592;10.184;2023-12-14T04:38:10;100946.66;;;3.95;100.00
16016;BME280;8112;53.592;10.184;2023-12-14T04:43:13;100946.75;;;3.92;100.00
16016;BME280;8112;53.592;10.184;2023-12-14T04:48:15;100955.38;;;3.94;100.00
16016;BME280;8112;53.592;10.184;2023-12-14T04:53:17;100961.50;;;3.91;100.00
16016;BME280;8112;53.592;10.184;2023-12-14T04:58:20;100966.72;;;3.91;100.00
16016;BME280;8112;53.592;10.184;2023-12-14T05:03:22;100984.03;;;3.95;100.00
16016;BME280;8112;53.592;10.184;2023-12-14T05:08:23;100997.09;;;3.94;100.00
16016;BME280;8112;53.592;10.184;2023-12-14T05:13:26;100999.56;;;3.98;100.00
16016;BME280;8112;53.592;10.184;2023-12-14T05:18:28;100995.13;;;4.02;100.00
16016;BME280;8112;53.592;10.184;2023-12-14T05:23:30;100996.06;;;3.99;100.00
16016;BME280;8112;53.592;10.184;2023-12-14T05:28:33;101007.19;;;4.06;100.00
16016;BME280;8112;53.592;10.184;2023-12-14T05:33:36;101021.19;;;4.02;100.00
16016;BME280;8112;53.592;10.184;2023-12-14T05:38:38;101032.41;;;4.06;100.00
16016;BME280;8112;53.592;10.184;2023-12-14T05:43:41;101038.50;;;4.06;100.00
16016;BME280;8112;53.592;10.184;2023-12-14T05:48:43;101040.28;;;4.04;100.00
16016;BME280;8112;53.592;10.184;2023-12-14T05:53:45;101050.63;;;4.07;100.00
16016;BME280;8112;53.592;10.184;2023-12-14T05:58:48;101056.69;;;4.08;100.00
16016;BME280;8112;53.592;10.184;2023-12-14T06:03:50;101064.50;;;4.09;100.00
16016;BME280;8112;53.592;10.184;2023-12-14T06:08:52;101078.50;;;4.05;100.00
16016;BME280;8112;53.592;10.184;2023-12-14T06:13:55;101070.63;;;4.07;100.00
16016;BME280;8112;53.592;10.184;2023-12-14T06:18:56;101080.44;;;3.97;100.00
16016;BME280;8112;53.592;10.184;2023-12-14T06:23:58;101084.81;;;3.96;100.00
16016;BME280;8112;53.592;10.184;2023-12-14T06:29:01;101092.75;;;3.92;100.00
16016;BME280;8112;53.592;10.184;2023-12-14T06:34:03;101101.56;;;3.88;100.00
16016;BME280;8112;53.592;10.184;2023-12-14T06:39:05;101109.50;;;3.83;100.00
16016;BME280;8112;53.592;10.184;2023-12-14T06:44:08;101120.75;;;3.83;100.00
16016;BME280;8112;53.592;10.184;2023-12-14T06:49:09;101133.06;;;3.78;100.00
16016;BME280;8112;53.592;10.184;2023-12-14T06:54:11;101140.03;;;3.78;100.00
16016;BME280;8112;53.592;10.184;2023-12-14T06:59:14;101143.47;;;3.78;100.00
16016;BME280;8112;53.592;10.184;2023-12-14T07:04:16;101158.38;;;3.73;100.00
16016;BME280;8112;53.592;10.184;2023-12-14T07:09:19;101168.75;;;3.75;100.00
16016;BME280;8112;53.592;10.184;2023-12-14T07:14:22;101165.28;;;3.76;100.00
16016;BME280;8112;53.592;10.184;2023-12-14T07:19:24;101167.03;;;3.74;100.00
16016;BME280;8112;53.592;10.184;2023-12-14T07:24:26;101183.41;;;3.80;100.00
16016;BME280;8112;53.592;10.184;2023-12-14T07:29:29;101197.31;;;3.81;100.00
16016;BME280;8112;53.592;10.184;2023-12-14T07:34:30;101232.00;;;3.84;100.00
16016;BME280;8112;53.592;10.184;2023-12-14T07:39:32;101240.66;;;3.87;100.00
16016;BME280;8112;53.592;10.184;2023-12-14T07:44:35;101257.06;;;3.90;100.00
16016;BME280;8112;53.592;10.184;2023-12-14T07:49:38;101264.88;;;3.90;100.00
16016;BME280;8112;53.592;10.184;2023-12-14T07:54:39;101280.50;;;3.92;100.00
16016;BME280;8112;53.592;10.184;2023-12-14T07:59:42;101280.59;;;3.89;100.00
16016;BME280;8112;53.592;10.184;2023-12-14T08:04:45;101288.25;;;3.95;100.00
16016;BME280;8112;53.592;10.184;2023-12-14T08:09:46;101296.16;;;3.92;100.00
16016;BME280;8112;53.592;10.184;2023-12-14T08:14:50;101304.69;;;3.98;100.00
16016;BME280;8112;53.592;10.184;2023-12-14T08:19:52;101316.53;;;4.13;100.00
16016;BME280;8112;53.592;10.184;2023-12-14T08:24:54;101316.75;;;4.04;100.00
16016;BME280;8112;53.592;10.184;2023-12-14T08:29:57;101330.47;;;4.12;100.00
16016;BME280;8112;53.592;10.184;2023-12-14T08:34:58;101337.25;;;4.20;100.00
16016;BME280;8112;53.592;10.184;2023-12-14T08:40:00;101344.25;;;4.18;100.00
16016;BME280;8112;53.592;10.184;2023-12-14T08:45:04;101349.38;;;4.22;100.00
16016;BME280;8112;53.592;10.184;2023-12-14T08:50:07;101344.81;;;4.32;100.00
16016;BME280;8112;53.592;10.184;2023-12-14T08:55:09;101349.13;;;4.33;100.00
16016;BME280;8112;53.592;10.184;2023-12-14T09:00:13;101362.28;;;4.28;100.00
16016;BME280;8112;53.592;10.184;2023-12-14T09:05:15;101368.22;;;4.35;100.00
16016;BME280;8112;53.592;10.184;2023-12-14T09:10:19;101369.75;;;4.44;100.00
16016;BME280;8112;53.592;10.184;2023-12-14T09:15:22;101387.13;;;4.45;100.00
16016;BME280;8112;53.592;10.184;2023-12-14T09:20:24;101386.41;;;4.38;100.00
16016;BME280;8112;53.592;10.184;2023-12-14T09:25:26;101394.19;;;4.41;100.00
16016;BME280;8112;53.592;10.184;2023-12-14T09:30:29;101398.69;;;4.35;100.00
16016;BME280;8112;53.592;10.184;2023-12-14T09:35:31;101408.25;;;4.34;100.00
16016;BME280;8112;53.592;10.184;2023-12-14T09:40:32;101408.06;;;4.44;100.00
16016;BME280;8112;53.592;10.184;2023-12-14T09:45:37;101403.59;;;4.49;100.00
16016;BME280;8112;53.592;10.184;2023-12-14T09:50:41;101408.72;;;4.53;100.00
16016;BME280;8112;53.592;10.184;2023-12-14T09:55:44;101402.50;;;4.59;100.00
16016;BME280;8112;53.592;10.184;2023-12-14T10:00:47;101402.34;;;4.65;100.00
16016;BME280;8112;53.592;10.184;2023-12-14T10:05:50;101404.22;;;4.60;100.00
16016;BME280;8112;53.592;10.184;2023-12-14T10:10:53;101413.94;;;4.53;100.00
16016;BME280;8112;53.592;10.184;2023-12-14T10:15:57;101416.22;;;4.67;100.00
16016;BME280;8112;53.592;10.184;2023-12-14T10:20:59;101419.66;;;4.69;100.00
16016;BME280;8112;53.592;10.184;2023-12-14T10:26:01;101431.88;;;4.67;100.00
16016;BME280;8112;53.592;10.184;2023-12-14T10:31:04;101432.78;;;4.66;100.00
16016;BME280;8112;53.592;10.184;2023-12-14T10:36:07;101431.91;;;4.66;100.00
16016;BME280;8112;53.592;10.184;2023-12-14T10:41:11;101443.13;;;4.71;100.00
16016;BME280;8112;53.592;10.184;2023-12-14T10:46:16;101455.06;;;4.81;100.00
16016;BME280;8112;53.592;10.184;2023-12-14T10:51:21;101461.97;;;4.84;100.00
16016;BME280;8112;53.592;10.184;2023-12-14T10:56:23;101465.22;;;4.94;100.00
16016;BME280;8112;53.592;10.184;2023-12-14T11:01:26;101465.78;;;5.07;100.00
16016;BME280;8112;53.592;10.184;2023-12-14T11:06:31;101486.31;;;5.22;100.00
16016;BME280;8112;53.592;10.184;2023-12-14T11:11:40;101484.88;;;5.09;100.00
16016;BME280;8112;53.592;10.184;2023-12-14T11:16:47;101488.41;;;5.08;100.00
16016;BME280;8112;53.592;10.184;2023-12-14T11:22:09;101501.63;;;5.02;100.00
16016;BME280;8112;53.592;10.184;2023-12-14T11:27:11;101501.78;;;4.94;100.00
16016;BME280;8112;53.592;10.184;2023-12-14T11:32:16;101500.88;;;4.96;100.00
16016;BME280;8112;53.592;10.184;2023-12-14T11:37:19;101504.84;;;5.13;100.00
16016;BME280;8112;53.592;10.184;2023-12-14T11:42:22;101508.09;;;5.23;100.00
16016;BME280;8112;53.592;10.184;2023-12-14T11:47:25;101519.31;;;5.26;100.00
16016;BME280;8112;53.592;10.184;2023-12-14T11:52:27;101526.34;;;5.24;100.00
16016;BME280;8112;53.592;10.184;2023-12-14T11:57:29;101515.00;;;5.25;100.00
16016;BME280;8112;53.592;10.184;2023-12-14T12:02:32;101521.03;;;5.27;100.00
16016;BME280;8112;53.592;10.184;2023-12-14T12:07:35;101526.41;;;5.21;100.00
16016;BME280;8112;53.592;10.184;2023-12-14T12:12:37;101527.41;;;5.16;100.00
16016;BME280;8112;53.592;10.184;2023-12-14T12:17:40;101526.22;;;5.29;100.00
16016;BME280;8112;53.592;10.184;2023-12-14T12:22:41;101522.06;;;5.22;100.00
16016;BME280;8112;53.592;10.184;2023-12-14T12:27:43;101530.53;;;5.32;100.00
16016;BME280;8112;53.592;10.184;2023-12-14T12:32:46;101533.63;;;5.10;100.00
16016;BME280;8112;53.592;10.184;2023-12-14T12:37:48;101533.13;;;4.95;100.00
16016;BME280;8112;53.592;10.184;2023-12-14T12:42:53;101532.22;;;4.96;100.00
16016;BME280;8112;53.592;10.184;2023-12-14T12:47:56;101539.09;;;4.99;100.00
16016;BME280;8112;53.592;10.184;2023-12-14T12:52:58;101544.66;;;4.85;100.00
16016;BME280;8112;53.592;10.184;2023-12-14T12:58:00;101548.91;;;4.89;100.00
16016;BME280;8112;53.592;10.184;2023-12-14T13:03:06;101553.31;;;4.87;100.00
16016;BME280;8112;53.592;10.184;2023-12-14T13:08:08;101561.59;;;4.67;100.00
16016;BME280;8112;53.592;10.184;2023-12-14T13:13:10;101564.38;;;4.57;100.00
16016;BME280;8112;53.592;10.184;2023-12-14T13:18:14;101569.97;;;4.39;100.00
16016;BME280;8112;53.592;10.184;2023-12-14T13:23:17;101576.16;;;4.35;100.00
16016;BME280;8112;53.592;10.184;2023-12-14T13:28:19;101580.53;;;4.33;100.00
16016;BME280;8112;53.592;10.184;2023-12-14T13:33:22;101574.22;;;4.45;100.00
16016;BME280;8112;53.592;10.184;2023-12-14T13:38:24;101576.69;;;4.51;100.00
16016;BME280;8112;53.592;10.184;2023-12-14T13:43:25;101587.38;;;4.38;100.00
16016;BME280;8112;53.592;10.184;2023-12-14T13:48:28;101600.38;;;4.41;100.00
16016;BME280;8112;53.592;10.184;2023-12-14T13:53:30;101614.41;;;4.36;100.00
16016;BME280;8112;53.592;10.184;2023-12-14T13:58:32;101623.88;;;4.41;100.00
16016;BME280;8112;53.592;10.184;2023-12-14T14:03:40;101642.72;;;4.56;100.00
16016;BME280;8112;53.592;10.184;2023-12-14T14:08:42;101655.06;;;4.49;100.00
16016;BME280;8112;53.592;10.184;2023-12-14T14:13:44;101658.56;;;4.47;100.00
16016;BME280;8112;53.592;10.184;2023-12-14T14:18:47;101661.50;;;4.28;100.00
16016;BME280;8112;53.592;10.184;2023-12-14T14:23:49;101675.50;;;4.22;100.00
16016;BME280;8112;53.592;10.184;2023-12-14T14:28:50;101689.47;;;4.20;100.00
16016;BME280;8112;53.592;10.184;2023-12-14T14:33:53;101691.47;;;4.05;100.00
16016;BME280;8112;53.592;10.184;2023-12-14T14:38:55;101698.47;;;4.03;100.00
16016;BME280;8112;53.592;10.184;2023-12-14T14:43:57;101705.41;;;4.01;100.00
16016;BME280;8112;53.592;10.184;2023-12-14T14:49:00;101712.50;;;3.94;100.00
16016;BME280;8112;53.592;10.184;2023-12-14T14:54:02;101722.94;;;3.93;100.00
16016;BME280;8112;53.592;10.184;2023-12-14T14:59:04;101732.59;;;3.88;100.00
16016;BME280;8112;53.592;10.184;2023-12-14T15:04:09;101742.81;;;4.00;100.00
16016;BME280;8112;53.592;10.184;2023-12-14T15:09:10;101745.41;;;4.03;100.00
16016;BME280;8112;53.592;10.184;2023-12-14T15:14:13;101766.13;;;4.11;100.00
16016;BME280;8112;53.592;10.184;2023-12-14T15:19:16;101771.28;;;4.17;100.00
16016;BME280;8112;53.592;10.184;2023-12-14T15:24:17;101769.63;;;4.11;100.00
16016;BME280;8112;53.592;10.184;2023-12-14T15:29:19;101789.56;;;4.16;100.00
16016;BME280;8112;53.592;10.184;2023-12-14T15:34:23;101800.81;;;4.18;100.00
16016;BME280;8112;53.592;10.184;2023-12-14T15:39:24;101784.22;;;4.25;100.00
16016;BME280;8112;53.592;10.184;2023-12-14T15:44:26;101785.88;;;4.29;100.00
16016;BME280;8112;53.592;10.184;2023-12-14T15:49:29;101798.94;;;4.29;100.00
16016;BME280;8112;53.592;10.184;2023-12-14T15:54:31;101801.38;;;4.38;100.00
16016;BME280;8112;53.592;10.184;2023-12-14T15:59:33;101814.69;;;4.23;100.00
16016;BME280;8112;53.592;10.184;2023-12-14T16:04:36;101814.75;;;4.17;100.00
16016;BME280;8112;53.592;10.184;2023-12-14T16:09:38;101810.78;;;3.91;100.00
16016;BME280;8112;53.592;10.184;2023-12-14T16:14:39;101815.47;;;3.65;100.00
16016;BME280;8112;53.592;10.184;2023-12-14T16:19:42;101821.69;;;3.53;100.00
16016;BME280;8112;53.592;10.184;2023-12-14T16:24:44;101831.41;;;3.37;100.00
16016;BME280;8112;53.592;10.184;2023-12-14T16:29:46;101831.44;;;3.34;100.00
16016;BME280;8112;53.592;10.184;2023-12-14T16:34:49;101838.50;;;3.26;100.00
16016;BME280;8112;53.592;10.184;2023-12-14T16:39:51;101840.34;;;3.14;100.00
16016;BME280;8112;53.592;10.184;2023-12-14T16:44:52;101844.84;;;2.98;100.00
16016;BME280;8112;53.592;10.184;2023-12-14T16:49:56;101846.56;;;2.99;100.00
16016;BME280;8112;53.592;10.184;2023-12-14T16:54:57;101845.75;;;2.93;100.00
16016;BME280;8112;53.592;10.184;2023-12-14T16:59:59;101845.84;;;2.87;100.00
16016;BME280;8112;53.592;10.184;2023-12-14T17:05:02;101862.41;;;2.78;100.00
16016;BME280;8112;53.592;10.184;2023-12-14T17:10:05;101871.06;;;2.80;100.00
16016;BME280;8112;53.592;10.184;2023-12-14T17:15:07;101882.38;;;2.74;100.00
16016;BME280;8112;53.592;10.184;2023-12-14T17:20:13;101899.81;;;2.60;100.00
16016;BME280;8112;53.592;10.184;2023-12-14T17:25:14;101916.28;;;2.63;100.00
16016;BME280;8112;53.592;10.184;2023-12-14T17:30:16;101928.56;;;2.42;100.00
16016;BME280;8112;53.592;10.184;2023-12-14T17:35:19;101953.78;;;2.28;100.00
16016;BME280;8112;53.592;10.184;2023-12-14T17:40:21;101964.22;;;2.25;100.00
16016;BME280;8112;53.592;10.184;2023-12-14T17:45:24;101972.84;;;2.30;100.00
16016;BME280;8112;53.592;10.184;2023-12-14T17:50:27;101980.53;;;2.58;100.00
16016;BME280;8112;53.592;10.184;2023-12-14T17:55:29;101980.41;;;2.74;100.00
16016;BME280;8112;53.592;10.184;2023-12-14T18:00:31;101995.00;;;3.03;100.00
16016;BME280;8112;53.592;10.184;2023-12-14T18:05:34;101988.78;;;3.19;100.00
16016;BME280;8112;53.592;10.184;2023-12-14T18:10:36;102004.28;;;3.39;100.00
16016;BME280;8112;53.592;10.184;2023-12-14T18:15:39;102005.97;;;3.42;100.00
16016;BME280;8112;53.592;10.184;2023-12-14T18:20:42;102012.84;;;3.52;100.00
16016;BME280;8112;53.592;10.184;2023-12-14T18:25:43;102017.13;;;3.61;100.00
16016;BME280;8112;53.592;10.184;2023-12-14T18:30:46;102026.63;;;3.65;100.00
16016;BME280;8112;53.592;10.184;2023-12-14T18:35:49;102043.16;;;3.64;100.00
16016;BME280;8112;53.592;10.184;2023-12-14T18:40:51;102047.44;;;3.71;100.00
16016;BME280;8112;53.592;10.184;2023-12-14T18:45:53;102057.97;;;3.58;100.00
16016;BME280;8112;53.592;10.184;2023-12-14T18:50:56;102066.78;;;3.46;100.00
16016;BME280;8112;53.592;10.184;2023-12-14T18:55:57;102058.00;;;3.54;100.00
16016;BME280;8112;53.592;10.184;2023-12-14T19:00:59;102063.13;;;3.64;100.00
16016;BME280;8112;53.592;10.184;2023-12-14T19:06:07;102071.81;;;3.67;100.00
16016;BME280;8112;53.592;10.184;2023-12-14T19:11:14;102077.06;;;3.60;100.00
16016;BME280;8112;53.592;10.184;2023-12-14T19:16:22;102086.75;;;3.48;100.00
16016;BME280;8112;53.592;10.184;2023-12-14T19:21:26;102098.03;;;3.50;100.00
16016;BME280;8112;53.592;10.184;2023-12-14T19:26:28;102103.16;;;3.60;100.00
16016;BME280;8112;53.592;10.184;2023-12-14T19:31:29;102108.41;;;3.53;100.00
16016;BME280;8112;53.592;10.184;2023-12-14T19:36:32;102113.66;;;3.50;100.00
16016;BME280;8112;53.592;10.184;2023-12-14T19:41:37;102136.25;;;3.45;100.00
16016;BME280;8112;53.592;10.184;2023-12-14T19:46:39;102130.28;;;3.29;100.00
16016;BME280;8112;53.592;10.184;2023-12-14T19:51:42;102122.63;;;3.04;100.00
16016;BME280;8112;53.592;10.184;2023-12-14T19:56:44;102126.19;;;2.83;100.00
16016;BME280;8112;53.592;10.184;2023-12-14T20:01:46;102127.06;;;2.73;100.00
16016;BME280;8112;53.592;10.184;2023-12-14T20:06:49;102127.97;;;2.70;100.00
16016;BME280;8112;53.592;10.184;2023-12-14T20:11:52;102132.31;;;2.62;100.00
16016;BME280;8112;53.592;10.184;2023-12-14T20:16:54;102134.94;;;2.54;100.00
16016;BME280;8112;53.592;10.184;2023-12-14T20:21:57;102138.47;;;2.40;100.00
16016;BME280;8112;53.592;10.184;2023-12-14T20:26:59;102142.81;;;2.26;100.00
16016;BME280;8112;53.592;10.184;2023-12-14T20:32:01;102152.34;;;2.18;100.00
16016;BME280;8112;53.592;10.184;2023-12-14T20:37:04;102148.06;;;2.07;100.00
16016;BME280;8112;53.592;10.184;2023-12-14T20:42:05;102145.44;;;1.95;100.00
16016;BME280;8112;53.592;10.184;2023-12-14T20:47:07;102148.94;;;1.88;100.00
16016;BME280;8112;53.592;10.184;2023-12-14T20:52:11;102164.50;;;1.81;100.00
16016;BME280;8112;53.592;10.184;2023-12-14T20:57:12;102169.69;;;1.75;100.00
16016;BME280;8112;53.592;10.184;2023-12-14T21:02:14;102167.09;;;1.67;100.00
16016;BME280;8112;53.592;10.184;2023-12-14T21:07:18;102165.34;;;1.59;100.00
16016;BME280;8112;53.592;10.184;2023-12-14T21:12:19;102170.53;;;1.54;100.00
16016;BME280;8112;53.592;10.184;2023-12-14T21:17:23;102180.91;;;1.48;100.00
16016;BME280;8112;53.592;10.184;2023-12-14T21:22:26;102181.75;;;1.39;100.00
16016;BME280;8112;53.592;10.184;2023-12-14T21:27:28;102189.56;;;1.40;100.00
16016;BME280;8112;53.592;10.184;2023-12-14T21:32:46;102200.81;;;1.39;100.00
16016;BME280;8112;53.592;10.184;2023-12-14T21:37:49;102193.88;;;1.40;100.00
16016;BME280;8112;53.592;10.184;2023-12-14T21:42:51;102204.28;;;1.45;100.00
16016;BME280;8112;53.592;10.184;2023-12-14T21:47:53;102206.03;;;1.42;100.00
16016;BME280;8112;53.592;10.184;2023-12-14T21:52:56;102212.09;;;1.41;100.00
16016;BME280;8112;53.592;10.184;2023-12-14T21:57:58;102219.88;;;1.46;100.00
16016;BME280;8112;53.592;10.184;2023-12-14T22:02:59;102222.50;;;1.49;100.00
16016;BME280;8112;53.592;10.184;2023-12-14T22:08:03;102225.13;;;1.66;100.00
16016;BME280;8112;53.592;10.184;2023-12-14T22:13:04;102224.28;;;1.61;100.00
16016;BME280;8112;53.592;10.184;2023-12-14T22:18:06;102223.38;;;1.54;100.00
16016;BME280;8112;53.592;10.184;2023-12-14T22:23:12;102226.78;;;1.41;100.00
16016;BME280;8112;53.592;10.184;2023-12-14T22:28:13;102231.13;;;1.36;100.00
16016;BME280;8112;53.592;10.184;2023-12-14T22:33:15;102244.03;;;1.23;100.00
16016;BME280;8112;53.592;10.184;2023-12-14T22:38:18;102239.69;;;1.19;100.00
16016;BME280;8112;53.592;10.184;2023-12-14T22:43:22;102250.06;;;1.13;100.00
16016;BME280;8112;53.592;10.184;2023-12-14T22:48:23;102263.97;;;1.24;100.00
16016;BME280;8112;53.592;10.184;2023-12-14T22:53:26;102270.16;;;1.64;100.00
16016;BME280;8112;53.592;10.184;2023-12-14T22:58:29;102279.78;;;1.96;100.00
16016;BME280;8112;53.592;10.184;2023-12-14T23:03:31;102289.31;;;1.97;100.00
16016;BME280;8112;53.592;10.184;2023-12-14T23:08:34;102293.66;;;2.06;100.00
16016;BME280;8112;53.592;10.184;2023-12-14T23:13:36;102296.28;;;2.07;100.00
16016;BME280;8112;53.592;10.184;2023-12-14T23:18:37;102303.16;;;1.91;100.00
16016;BME280;8112;53.592;10.184;2023-12-14T23:23:40;102303.13;;;1.74;100.00
16016;BME280;8112;53.592;10.184;2023-12-14T23:28:42;102293.56;;;1.61;100.00
16016;BME280;8112;53.592;10.184;2023-12-14T23:33:44;102304.81;;;1.58;100.00
16016;BME280;8112;53.592;10.184;2023-12-14T23:38:47;102299.63;;;1.58;100.00
16016;BME280;8112;53.592;10.184;2023-12-14T23:43:48;102307.41;;;1.53;100.00
16016;BME280;8112;53.592;10.184;2023-12-14T23:48:54;102298.72;;;1.48;100.00
16016;BME280;8112;53.592;10.184;2023-12-14T23:53:57;102308.25;;;1.52;100.00
16016;BME280;8112;53.592;10.184;2023-12-14T23:58:59;102313.47;;;1.55;100.00
